Kezdőlap
METAR-TAF:

METAR-TAF

Repülőterek :

Akron, Colorado, Amerikai Egyesült Államok

földrajzi szélesség: 40-10-28N, földrajzi hosszúság: 103-12-52W, magasság: 1431 m

Jelenlegi meteorológiai megfigyelések

A jelentés 14 perccel ezelõtt készült, 23:53 UTC
Északkeleti szél 5 kt
Hőmérséklet 3°C
Páratartalom 65%
Légköri nyomás 1023 hPa
Látótávolság: 16.1 km
Borult 5000 lábon

METAR: KAKO 182353Z AUTO 04005KT 10SM OVC050 03/M03 A3022 RMK AO2 SLP251 T00331033 10039 20006 56004

Idő: 18:07 (00:07 UTC)


TAF: hiányzik

Meteorológiai megfigyelések és előrejelzések több, mint 4000 repülőtéren (METAR és TAF jelentéseket).

A térképen piros és sárga pontok jelzik az elérhető meteorológiai állomásokat.

Mozgassa az egeret a pont fölött, hogy megjelenjen az állomás neve.

Azután kattintson az időjárási megfigyelések és előrejelzések megtekintéséhez.

A térkép megváltoztatása: kattintson a fekete keresztel jelölt zöld gombra ráközelítéshez, a vonallal jelölt zöld gombra távolításhoz, vagy a zöld nyilakra a szomszédos térképek eléréséhez.


METAR-TAF: